Aérodrome :
LOGIN :

S'inscrire | Disclaimer

   EN    FR    IT 

 










Légende :    VFR   VFR Marginal   IFR   IFR Intensif   IFR Très Intensif
Visi : 
Plafond : 
>= 8 km
>= 3000ft
5 à 8 km
1000 à 3000 ft
1500m à 5 km
500 à 1000 ft
800 à 1500m
200 à 500 ft
< 800m
< 200 ft
Symboles :   Orages  Brouillard  Fortes neiges  Fortes précipitations  Vent > 20 kt
SIGMETs :   Divers  Orages  Givrage  Turbulence  Onde Orograph.  Cendres Volcan.







- Altitude de l'aérodrome : 82 ft
- Code IATA : ALG


DAAG - Alger Houari Boumedienne

DERNIER METAR :
  • 211800Z 06012KT 8000 SCT020TCU FEW026CB BKN033 14/11 Q1021

METARs EXPIRÉS :
  • 211730Z 06013KT 8000 SCT020TCU FEW026CB BKN033 14/11 Q1021
  • 211700Z 05013KT 8000 SCT020TCU FEW026CB BKN033 14/11 Q1021
  • 211630Z 05015KT 8000 SCT020TCU FEW026CB BKN033 14/10 Q1020
  • 211600Z 05014KT 8000 SCT020TCU FEW026CB BKN033 14/11 Q1020
  • 211530Z 05014KT 6000 SCT020TCU FEW026CB BKN033 14/10 Q1020

TAF TAF DAAG
Valide du 21 à 18h jusqu'au 22 à 18h UTC


211700Z 2118/2218 04014KT 8000 FEW020 BKN033
TEMPO 2118/2208 5000 -RA SCT020TCU FEW026CB
PROB30
TEMPO 2118/2122 3000 RA
PROB40
TEMPO 2208/2212 04015G30KT 5000 -TSRA SCT020TCU FEW023CB
Pas de NOTAMs connus pour ce terrain.



MET'MAP, la Météo Aéronautique d'un coup d'oeil ! - Copyright ORBIFLY Décembre 2007 - Disclaimer

ORBIFLY MET'MAP TEAM :

Programmation & Développement : Alexandra Zaïnal
Conception & Développement : Baudouin d'Aumeries
Co-Programmation & Développement : Marc-Olivier Méhu
Soutien technique & logistique : Manuel Goepfert

Contact : metmap@orbifly.com




SOURCES & CREDITS :

   NOAA